D09 weather

Bottineau Municipal Airport
Bottineau, North Dakota, United States

Public forecast

Using degrees Fahrenheit for public forecast. Weather courtesy of forecast.io.

Closest aviation weather report (METAR) to Bottineau Municipal Airport

Closest report is Rugby Municipal Airport, 30.7 nm (56.8 km) SSE. Retrieved 2019/12/05 19:35 UTC (0 seconds ago):

KRUG 051935Z AUTO 34014KT 10SM OVC019 M03/M06 A3007 RMK AO2

Closest aviation forecast (TAF) to Bottineau Municipal Airport

Closest forecast is Minot Air Force Base, 44.9 nm (83.1 km) WSW. Retrieved 2019/12/05 17:03 UTC (2 hours ago):

TAF KMIB 051700Z 0517/0623 33010G15KT 9999 BKN007 OVC010 QNH3002INS BECMG 0523/0524 VRB06KT 9999 SCT010 QNH3015INS BECMG 0617/0618 25009KT 9999 BKN010 QNH3005INS TXM02/0518Z TNM06/0611Z